Time;durP1;ratioP1;P1;durP2;ratioP2;P2;SDS_P1;SDS_P2;PMS_P1;PMS_P2;Temp;Humidity;BMP_temperature;BMP_pressure;BME280_temperature;BME280_humidity;BME280_pressure;Samples;Min_cycle;Max_cycle;Signal;HPM_P1;HPM_P2
2022/07/13 00:01:20;;;;;;;7.22;3.45;;;12.40;99.90;;;;;;5034085;28;20222;-78
2022/07/13 00:03:51;;;;;;;1.80;0.93;;;12.50;99.90;;;;;;5033739;28;20666;-80
2022/07/13 00:06:22;;;;;;;1.45;1.25;;;12.50;99.90;;;;;;5032271;28;20194;-84
2022/07/13 00:08:52;;;;;;;3.00;1.08;;;12.50;99.90;;;;;;5033681;28;20240;-78
2022/07/13 00:11:23;;;;;;;1.20;0.77;;;12.60;99.90;;;;;;5033675;28;20206;-80
2022/07/13 00:13:54;;;;;;;1.27;0.60;;;12.60;99.90;;;;;;5033794;28;20205;-82
2022/07/13 00:16:26;;;;;;;2.05;0.85;;;12.70;99.90;;;;;;5033291;28;20194;-80
2022/07/13 00:18:57;;;;;;;1.10;0.47;;;12.70;99.90;;;;;;5032284;28;20190;-80
2022/07/13 00:21:28;;;;;;;0.70;0.40;;;12.80;99.90;;;;;;5033194;28;20210;-80
2022/07/13 00:23:59;;;;;;;1.30;0.60;;;12.90;99.90;;;;;;5032160;28;20197;-81
2022/07/13 00:26:29;;;;;;;0.75;0.60;;;13.10;99.90;;;;;;5033753;28;20634;-82
2022/07/13 00:29:02;;;;;;;0.60;0.55;;;13.20;99.90;;;;;;5032718;28;20214;-80
2022/07/13 00:31:35;;;;;;;0.85;0.60;;;13.20;99.90;;;;;;5033172;28;20233;-82
2022/07/13 00:34:05;;;;;;;0.68;0.63;;;13.20;99.90;;;;;;5033231;28;20197;-79
2022/07/13 00:36:37;;;;;;;1.05;0.70;;;13.30;99.90;;;;;;5029586;28;20716;-80
2022/07/13 00:39:09;;;;;;;1.88;0.45;;;13.40;99.90;;;;;;5029555;28;20198;-80
2022/07/13 00:41:47;;;;;;;1.55;0.88;;;13.40;99.90;;;;;;5033311;28;20194;-80
2022/07/13 00:44:20;;;;;;;0.80;0.50;;;13.50;99.90;;;;;;5032675;28;20217;-81
2022/07/13 00:46:56;;;;;;;1.05;0.70;;;13.50;99.90;;;;;;5032811;28;20190;-83
2022/07/13 00:49:27;;;;;;;2.08;0.70;;;13.60;99.90;;;;;;5032925;28;20217;-79
2022/07/13 00:51:58;;;;;;;2.03;0.88;;;13.70;99.90;;;;;;5032948;28;20187;-82
2022/07/13 00:54:30;;;;;;;3.22;0.50;;;13.80;99.90;;;;;;5031986;28;20205;-80
2022/07/13 00:57:02;;;;;;;0.65;0.50;;;13.90;99.90;;;;;;5025858;28;20206;-80
2022/07/13 00:59:33;;;;;;;0.73;0.45;;;14.10;99.90;;;;;;5030289;28;20190;-82
2022/07/13 01:02:05;;;;;;;1.63;0.50;;;14.10;99.90;;;;;;5032508;28;20214;-80
2022/07/13 01:04:36;;;;;;;1.38;0.60;;;14.10;99.90;;;;;;5032380;28;20182;-80
2022/07/13 01:07:07;;;;;;;2.05;0.40;;;14.10;99.90;;;;;;5028921;28;20194;-81
2022/07/13 01:09:39;;;;;;;3.53;0.55;;;14.10;99.90;;;;;;5029834;28;20249;-81
2022/07/13 01:12:09;;;;;;;1.13;0.55;;;14.00;99.90;;;;;;5030641;28;20652;-81
2022/07/13 01:14:41;;;;;;;2.10;0.70;;;13.90;99.90;;;;;;5032337;28;20197;-80
2022/07/13 01:17:15;;;;;;;1.05;0.55;;;14.00;99.90;;;;;;5029437;28;20626;-81
2022/07/13 01:19:46;;;;;;;1.15;0.70;;;14.10;99.90;;;;;;5032865;28;20209;-81
2022/07/13 01:22:19;;;;;;;1.45;0.60;;;14.30;99.90;;;;;;5032364;28;20187;-79
2022/07/13 01:24:52;;;;;;;2.25;0.95;;;14.50;99.90;;;;;;5032564;28;20197;-80
2022/07/13 01:27:23;;;;;;;0.70;0.60;;;14.70;99.90;;;;;;5032389;28;20198;-80
2022/07/13 01:29:54;;;;;;;1.10;0.55;;;14.80;99.90;;;;;;5032489;28;20222;-81
2022/07/13 01:32:24;;;;;;;1.65;0.40;;;14.90;99.90;;;;;;5032748;28;20188;-81
2022/07/13 01:34:55;;;;;;;2.55;0.57;;;15.00;99.90;;;;;;5032143;28;20197;-79
2022/07/13 01:37:26;;;;;;;1.75;0.63;;;15.00;99.90;;;;;;5032088;28;20732;-80
2022/07/13 01:39:58;;;;;;;0.98;0.60;;;15.10;99.90;;;;;;5032265;28;20198;-80
2022/07/13 01:42:29;;;;;;;1.65;0.68;;;15.00;99.90;;;;;;5031982;28;20193;-79
2022/07/13 01:45:01;;;;;;;1.40;0.57;;;14.90;99.90;;;;;;5031444;28;20194;-80
2022/07/13 01:47:32;;;;;;;2.35;0.63;;;14.80;99.90;;;;;;5032660;28;20194;-81
2022/07/13 01:50:02;;;;;;;1.73;0.50;;;14.80;99.90;;;;;;5035794;28;20214;-81
2022/07/13 01:52:33;;;;;;;2.20;0.90;;;14.70;99.90;;;;;;5033460;28;20186;-80
2022/07/13 01:55:06;;;;;;;2.30;0.60;;;14.60;99.90;;;;;;5036226;28;20252;-80
2022/07/13 01:57:37;;;;;;;4.22;0.60;;;14.50;99.90;;;;;;5034351;28;20638;-81
2022/07/13 02:00:11;;;;;;;0.88;0.60;;;14.40;99.90;;;;;;5036200;28;20270;-79
2022/07/13 02:02:42;;;;;;;1.58;0.65;;;14.30;99.90;;;;;;5034237;28;20229;-81
2022/07/13 02:05:13;;;;;;;2.20;0.60;;;14.40;99.90;;;;;;5035982;28;20186;-80
2022/07/13 02:07:45;;;;;;;1.63;0.70;;;14.50;99.90;;;;;;5035565;28;20186;-81
2022/07/13 02:10:18;;;;;;;3.05;0.60;;;14.70;99.90;;;;;;5035557;28;20218;-81
2022/07/13 02:12:48;;;;;;;0.80;0.60;;;14.80;99.90;;;;;;5035851;28;20190;-83
2022/07/13 02:15:19;;;;;;;0.60;0.40;;;15.00;99.90;;;;;;5036097;28;20190;-80
2022/07/13 02:17:50;;;;;;;0.50;0.40;;;15.00;99.90;;;;;;5035483;28;20197;-80
2022/07/13 02:20:20;;;;;;;3.33;0.45;;;14.90;99.90;;;;;;5035744;28;20190;-80
2022/07/13 02:22:51;;;;;;;1.23;0.60;;;14.80;99.90;;;;;;5035652;28;20557;-81
2022/07/13 02:25:24;;;;;;;1.77;0.60;;;14.70;99.90;;;;;;5035493;28;20206;-80
2022/07/13 02:27:54;;;;;;;1.85;0.90;;;14.70;99.90;;;;;;5035868;28;20219;-79
2022/07/13 02:30:25;;;;;;;1.08;0.60;;;14.70;99.90;;;;;;5035447;28;20214;-80
2022/07/13 02:32:56;;;;;;;1.58;0.60;;;14.70;99.90;;;;;;5035283;28;20191;-80
2022/07/13 02:35:27;;;;;;;1.08;0.47;;;14.70;99.90;;;;;;5034996;28;20190;-81
2022/07/13 02:37:57;;;;;;;1.08;0.60;;;14.70;99.90;;;;;;5035598;28;20190;-81
2022/07/13 02:40:30;;;;;;;2.30;0.73;;;14.70;99.90;;;;;;5035324;28;20186;-82
2022/07/13 02:43:01;;;;;;;0.90;0.57;;;14.70;99.90;;;;;;5034591;28;20190;-80
2022/07/13 02:45:31;;;;;;;2.88;0.80;;;14.70;99.90;;;;;;5035308;28;20681;-81
2022/07/13 02:48:02;;;;;;;1.60;0.68;;;14.60;99.90;;;;;;5034998;28;20190;-79
2022/07/13 02:50:33;;;;;;;1.13;0.60;;;14.50;99.90;;;;;;5034867;28;20214;-80
2022/07/13 02:53:03;;;;;;;1.58;0.77;;;14.40;99.90;;;;;;5035550;28;20242;-83
2022/07/13 02:55:36;;;;;;;1.25;0.70;;;14.40;99.90;;;;;;5037687;28;20186;-81
2022/07/13 02:58:07;;;;;;;1.33;0.80;;;14.60;99.90;;;;;;5030770;28;20190;-81
2022/07/13 03:00:37;;;;;;;1.92;0.80;;;14.80;99.90;;;;;;5034664;28;20198;-79
2022/07/13 03:03:08;;;;;;;0.98;0.60;;;14.90;99.90;;;;;;5034990;28;20225;-80
2022/07/13 03:05:38;;;;;;;2.90;0.68;;;14.90;99.90;;;;;;5034561;28;20677;-81
2022/07/13 03:08:09;;;;;;;1.85;0.80;;;14.90;99.90;;;;;;5030261;28;20190;-79
2022/07/13 03:10:42;;;;;;;2.28;0.50;;;14.90;99.90;;;;;;5029866;28;20214;-80
2022/07/13 03:13:13;;;;;;;1.38;1.00;;;14.80;99.90;;;;;;5034698;28;20619;-81
2022/07/13 03:15:43;;;;;;;3.03;0.70;;;14.70;99.90;;;;;;5021107;28;20199;-79
2022/07/13 03:18:14;;;;;;;1.20;0.60;;;14.60;99.90;;;;;;5035057;28;20190;-80
2022/07/13 03:20:45;;;;;;;1.70;0.80;;;14.50;99.90;;;;;;5017971;28;20191;-82
2022/07/13 03:23:15;;;;;;;3.03;0.60;;;14.40;99.90;;;;;;5015514;28;20191;-80
2022/07/13 03:25:48;;;;;;;1.83;0.90;;;14.40;99.90;;;;;;5015358;28;20191;-82
2022/07/13 03:28:19;;;;;;;0.90;0.60;;;14.40;99.90;;;;;;5019455;28;20194;-79
2022/07/13 03:30:49;;;;;;;1.35;0.60;;;14.30;99.90;;;;;;5034991;28;20218;-81
2022/07/13 03:33:20;;;;;;;1.08;0.60;;;14.30;99.90;;;;;;5023637;28;20190;-80
2022/07/13 03:35:51;;;;;;;1.05;0.60;;;14.30;99.90;;;;;;5037547;28;20226;-79
2022/07/13 03:38:21;;;;;;;0.40;0.40;;;14.30;99.90;;;;;;5054837;28;20653;-80
2022/07/13 03:40:54;;;;;;;0.65;0.57;;;14.30;99.90;;;;;;5043937;28;20213;-79
2022/07/13 03:43:24;;;;;;;0.82;0.60;;;14.40;99.90;;;;;;5034855;28;20201;-79
2022/07/13 03:45:55;;;;;;;0.70;0.70;;;14.40;99.90;;;;;;5035020;28;20197;-76
2022/07/13 03:48:26;;;;;;;0.98;0.60;;;14.40;99.90;;;;;;5034155;28;21316;-77
2022/07/13 03:50:57;;;;;;;1.05;0.60;;;14.50;99.90;;;;;;5034559;28;20214;-80
2022/07/13 03:53:28;;;;;;;0.95;0.63;;;14.50;99.90;;;;;;5048508;28;20776;-75
2022/07/13 03:56:00;;;;;;;1.00;0.70;;;14.60;99.90;;;;;;5054360;28;20656;-75
2022/07/13 03:58:31;;;;;;;1.20;0.80;;;14.60;99.90;;;;;;5035238;28;20190;-80
2022/07/13 04:01:02;;;;;;;3.70;1.00;;;14.60;99.90;;;;;;5034134;28;20575;-82
2022/07/13 04:03:32;;;;;;;3.22;0.73;;;14.60;99.90;;;;;;5031242;28;20194;-78
2022/07/13 04:06:03;;;;;;;1.90;0.75;;;14.60;99.90;;;;;;5034463;28;20677;-79
2022/07/13 04:08:34;;;;;;;2.13;0.70;;;14.60;99.90;;;;;;5034117;28;20638;-78
2022/07/13 04:11:07;;;;;;;0.88;0.70;;;14.50;99.90;;;;;;5033555;28;20685;-76
2022/07/13 04:13:37;;;;;;;1.95;0.73;;;14.40;99.90;;;;;;5034030;28;20197;-82
2022/07/13 04:16:08;;;;;;;0.75;0.63;;;14.40;99.90;;;;;;5034646;28;20634;-78
2022/07/13 04:18:39;;;;;;;1.00;0.80;;;14.30;99.90;;;;;;5034511;28;20197;-78
2022/07/13 04:21:10;;;;;;;1.48;1.10;;;14.30;99.90;;;;;;5034213;28;20277;-77
2022/07/13 04:23:41;;;;;;;1.63;1.00;;;14.30;99.90;;;;;;5034283;28;20213;-78
2022/07/13 04:26:13;;;;;;;1.23;0.52;;;14.30;99.90;;;;;;5020276;28;20641;-80
2022/07/13 04:28:44;;;;;;;0.95;0.60;;;14.30;99.90;;;;;;5047288;28;20225;-80
2022/07/13 04:31:15;;;;;;;2.47;0.80;;;14.30;99.90;;;;;;5052898;28;20225;-79
2022/07/13 04:33:45;;;;;;;0.60;0.60;;;14.40;99.90;;;;;;5033906;28;20277;-80
2022/07/13 04:36:16;;;;;;;2.17;0.70;;;14.40;99.90;;;;;;5019043;28;20230;-79
2022/07/13 04:38:47;;;;;;;0.77;0.60;;;14.40;99.90;;;;;;5014420;28;20210;-81
2022/07/13 04:41:19;;;;;;;2.00;0.70;;;14.50;99.90;;;;;;5014113;28;20198;-80
2022/07/13 04:43:50;;;;;;;1.10;0.70;;;14.50;99.90;;;;;;5025801;28;20193;-80
2022/07/13 04:46:24;;;;;;;0.90;0.50;;;14.50;99.90;;;;;;5044704;28;20189;-80
2022/07/13 04:48:55;;;;;;;1.58;0.60;;;14.50;99.90;;;;;;5053686;28;20564;-79
2022/07/13 04:51:26;;;;;;;4.00;0.90;;;14.50;99.90;;;;;;5020123;28;20593;-77
2022/07/13 04:53:57;;;;;;;2.25;0.70;;;14.60;99.90;;;;;;5015209;28;20603;-81
2022/07/13 04:56:29;;;;;;;0.82;0.68;;;14.60;99.90;;;;;;5027746;28;20737;-76
2022/07/13 04:59:00;;;;;;;3.10;0.90;;;14.40;99.90;;;;;;5033476;28;20186;-78
2022/07/13 05:01:31;;;;;;;2.40;0.90;;;14.50;99.90;;;;;;5030419;28;20217;-77
2022/07/13 05:04:02;;;;;;;0.52;0.50;;;14.40;99.90;;;;;;5025719;28;20191;-81
2022/07/13 05:06:32;;;;;;;0.60;0.60;;;14.30;99.90;;;;;;5013977;28;20538;-79
2022/07/13 05:09:03;;;;;;;0.45;0.45;;;14.30;99.90;;;;;;5025567;28;20213;-78
2022/07/13 05:11:36;;;;;;;1.42;0.70;;;14.20;99.90;;;;;;5029564;28;20218;-77
2022/07/13 05:14:07;;;;;;;1.30;0.73;;;14.20;99.90;;;;;;5029603;28;20236;-79
2022/07/13 05:16:37;;;;;;;0.90;0.60;;;14.10;99.90;;;;;;5042115;28;20653;-76
2022/07/13 05:19:08;;;;;;;2.75;0.60;;;14.00;99.90;;;;;;5048716;28;20657;-78
2022/07/13 05:21:39;;;;;;;0.93;0.60;;;14.00;99.90;;;;;;5035719;28;20226;-78
2022/07/13 05:24:09;;;;;;;1.88;0.80;;;14.00;99.90;;;;;;5025641;28;20186;-78
2022/07/13 05:26:42;;;;;;;1.17;0.85;;;14.00;99.90;;;;;;5024930;28;20203;-79
2022/07/13 05:29:13;;;;;;;1.00;0.70;;;14.00;99.90;;;;;;5035412;28;20182;-79
2022/07/13 05:31:43;;;;;;;3.08;0.77;;;14.10;99.90;;;;;;5053121;28;20197;-78
2022/07/13 05:34:14;;;;;;;1.00;0.70;;;14.10;99.90;;;;;;5039302;28;20559;-75
2022/07/13 05:36:45;;;;;;;1.05;0.77;;;14.10;99.90;;;;;;5027230;28;20242;-78
2022/07/13 05:39:15;;;;;;;0.70;0.60;;;14.10;99.90;;;;;;5013372;28;20191;-79
2022/07/13 05:41:48;;;;;;;1.75;0.90;;;14.00;99.90;;;;;;5019207;28;20193;-76
2022/07/13 05:44:18;;;;;;;1.52;0.70;;;14.00;99.90;;;;;;5025025;28;20553;-75
2022/07/13 05:46:49;;;;;;;1.08;0.60;;;14.00;99.90;;;;;;5045351;28;20217;-77
2022/07/13 05:49:20;;;;;;;0.93;0.50;;;14.00;99.90;;;;;;5023602;28;20198;-79
2022/07/13 05:51:50;;;;;;;1.67;0.60;;;14.00;99.90;;;;;;5032450;28;20198;-76
2022/07/13 05:54:21;;;;;;;1.23;0.40;;;13.90;99.90;;;;;;5032036;28;20199;-79
2022/07/13 05:56:54;;;;;;;2.15;0.65;;;13.90;99.90;;;;;;5048111;28;20200;-79
2022/07/13 05:59:24;;;;;;;0.65;0.60;;;13.90;99.90;;;;;;5049102;28;20194;-80
2022/07/13 06:01:55;;;;;;;2.15;0.77;;;13.80;99.90;;;;;;5026188;28;20215;-79
2022/07/13 06:04:26;;;;;;;0.47;0.47;;;13.80;99.90;;;;;;5013315;28;20219;-80
2022/07/13 06:06:56;;;;;;;1.20;0.70;;;13.70;99.90;;;;;;5019796;28;20186;-77
2022/07/13 06:09:27;;;;;;;0.80;0.60;;;13.70;99.90;;;;;;5044517;28;20201;-75
2022/07/13 06:12:00;;;;;;;1.40;0.60;;;13.70;99.90;;;;;;5023066;28;20193;-77
2022/07/13 06:14:30;;;;;;;1.48;0.80;;;13.60;99.90;;;;;;5048668;28;20210;-77
2022/07/13 06:17:01;;;;;;;1.02;0.65;;;13.60;99.90;;;;;;5040121;28;20205;-77
2022/07/13 06:19:33;;;;;;;0.63;0.63;;;13.60;99.90;;;;;;5015387;28;20559;-77
2022/07/13 06:22:03;;;;;;;0.65;0.50;;;13.50;99.90;;;;;;5012819;28;20192;-80
2022/07/13 06:24:34;;;;;;;0.90;0.50;;;13.50;99.90;;;;;;5013974;28;20191;-77
2022/07/13 06:27:07;;;;;;;40.92;26.05;;;13.50;99.90;;;;;;5013316;28;20267;-78
2022/07/13 06:29:38;;;;;;;23.15;14.32;;;13.50;99.90;;;;;;5022615;28;20198;-78
2022/07/13 06:32:08;;;;;;;28.85;17.98;;;13.60;99.90;;;;;;5014586;28;20191;-78
2022/07/13 06:34:39;;;;;;;19.90;12.75;;;13.50;99.90;;;;;;5015066;28;20194;-79
2022/07/13 06:37:10;;;;;;;12.57;8.30;;;13.50;99.90;;;;;;5016248;28;20650;-76
2022/07/13 06:39:41;;;;;;;4.88;3.10;;;13.50;99.90;;;;;;5018574;28;20598;-78
2022/07/13 06:42:13;;;;;;;3.47;2.22;;;13.50;99.90;;;;;;5035891;28;20194;-76
2022/07/13 06:44:44;;;;;;;3.03;2.17;;;13.50;99.90;;;;;;5036006;28;20565;-76
2022/07/13 06:47:14;;;;;;;2.53;1.73;;;13.50;99.90;;;;;;5021120;28;20580;-79
2022/07/13 06:49:45;;;;;;;1.98;1.52;;;13.50;99.90;;;;;;5016635;28;20207;-76
2022/07/13 06:52:16;;;;;;;0.80;0.80;;;13.40;99.90;;;;;;5016576;28;20195;-78
2022/07/13 06:54:50;;;;;;;0.80;0.80;;;13.50;99.90;;;;;;5016086;28;20554;-77
2022/07/13 06:57:22;;;;;;;1.10;1.00;;;13.50;99.90;;;;;;5019120;28;20214;-78
2022/07/13 06:59:53;;;;;;;1.60;0.80;;;13.50;99.90;;;;;;5015949;28;20238;-78
2022/07/13 07:02:23;;;;;;;0.88;0.70;;;13.50;99.90;;;;;;5017489;28;20234;-78
2022/07/13 07:04:54;;;;;;;1.17;0.70;;;13.40;99.90;;;;;;5021460;28;20188;-78
2022/07/13 07:07:25;;;;;;;1.33;0.90;;;13.40;99.90;;;;;;5034572;28;20194;-78
2022/07/13 07:09:55;;;;;;;0.90;0.80;;;13.30;99.90;;;;;;5035467;28;20198;-76
2022/07/13 07:12:28;;;;;;;0.93;0.80;;;13.30;99.90;;;;;;5029869;28;20187;-77
2022/07/13 07:14:59;;;;;;;0.90;0.60;;;13.30;99.90;;;;;;5015817;28;20195;-76
2022/07/13 07:17:29;;;;;;;0.60;0.60;;;13.30;99.90;;;;;;5019228;28;20554;-77
2022/07/13 07:20:03;;;;;;;1.02;0.80;;;13.20;99.90;;;;;;5035490;28;20600;-75
2022/07/13 07:22:34;;;;;;;1.10;0.70;;;13.20;99.90;;;;;;5035377;28;20190;-77
2022/07/13 07:25:05;;;;;;;1.05;0.52;;;13.20;99.90;;;;;;5035049;28;20201;-74
2022/07/13 07:27:37;;;;;;;1.95;0.70;;;13.20;99.90;;;;;;5021691;28;20205;-75
2022/07/13 07:30:09;;;;;;;0.77;0.60;;;13.20;99.90;;;;;;5031563;28;20186;-77
2022/07/13 07:32:40;;;;;;;0.80;0.70;;;13.10;99.90;;;;;;5034940;28;20209;-76
2022/07/13 07:35:12;;;;;;;1.95;0.90;;;13.10;99.90;;;;;;5035312;28;20672;-78
2022/07/13 07:37:43;;;;;;;0.88;0.80;;;13.10;99.90;;;;;;5034770;28;20230;-77
2022/07/13 07:40:14;;;;;;;0.60;0.60;;;13.10;99.90;;;;;;5034484;28;20191;-78
2022/07/13 07:42:46;;;;;;;1.10;0.60;;;13.10;99.90;;;;;;5015483;28;20195;-79
2022/07/13 07:45:17;;;;;;;0.75;0.60;;;13.10;99.90;;;;;;5015133;28;20199;-75
2022/07/13 07:47:48;;;;;;;0.98;0.60;;;13.10;99.90;;;;;;5029489;28;20198;-75
2022/07/13 07:50:18;;;;;;;1.13;0.73;;;13.00;99.90;;;;;;5034801;28;20244;-79
2022/07/13 07:52:49;;;;;;;0.70;0.70;;;13.10;99.90;;;;;;5027905;28;20195;-78
2022/07/13 07:55:20;;;;;;;2.15;0.90;;;13.00;99.90;;;;;;5022890;28;20195;-77
2022/07/13 07:57:53;;;;;;;1.77;0.60;;;13.00;99.90;;;;;;5025656;28;20205;-75
2022/07/13 08:00:24;;;;;;;0.75;0.68;;;13.00;99.90;;;;;;5034482;28;20673;-78
2022/07/13 08:02:57;;;;;;;0.57;0.57;;;13.00;99.90;;;;;;5032631;28;20706;-78
2022/07/13 08:05:27;;;;;;;0.80;0.60;;;13.00;99.90;;;;;;5034493;28;20209;-77
2022/07/13 08:07:58;;;;;;;0.73;0.70;;;13.00;99.90;;;;;;5034012;28;20186;-76
2022/07/13 08:10:29;;;;;;;0.90;0.60;;;13.00;99.90;;;;;;5021854;28;20206;-77
2022/07/13 08:13:05;;;;;;;2.05;0.60;;;13.00;99.90;;;;;;5032804;28;20213;-79
2022/07/13 08:15:36;;;;;;;51.58;28.50;;;13.00;99.90;;;;;;5032945;28;20604;-79
2022/07/13 08:18:07;;;;;;;251.43;118.72;;;13.00;99.90;;;;;;5033845;28;20186;-78
2022/07/13 08:20:38;;;;;;;77.38;45.42;;;13.00;99.90;;;;;;5022873;28;20456;-80
2022/07/13 08:23:51;;;;;;;45.78;25.60;;;12.90;99.90;;;;;;5025639;28;20186;-79
2022/07/13 08:26:00;;;;;;;29.55;16.15;;;12.80;99.90;;;;;;5026231;28;20927;-78
2022/07/13 08:28:32;;;;;;;18.38;10.70;;;12.70;99.90;;;;;;5026149;28;20198;-79
2022/07/13 08:31:03;;;;;;;14.07;8.48;;;12.70;99.90;;;;;;5021406;28;20222;-79
2022/07/13 08:39:07;;;;;;;13.05;8.00;;;12.50;99.90;;;;;;5030246;28;20190;-79
2022/07/13 08:41:38;;;;;;;4.10;2.38;;;12.40;99.90;;;;;;5033517;28;20190;-80
2022/07/13 08:44:10;;;;;;;12.10;6.97;;;12.30;99.90;;;;;;5033171;28;20198;-79
2022/07/13 08:46:42;;;;;;;10.15;5.85;;;12.30;99.90;;;;;;5023565;28;20202;-78
2022/07/13 08:49:13;;;;;;;6.72;4.18;;;12.30;99.90;;;;;;5033059;28;20197;-79
2022/07/13 08:51:46;;;;;;;1.50;1.17;;;12.20;99.90;;;;;;5026632;28;20674;-79
2022/07/13 08:54:16;;;;;;;1.40;1.30;;;12.20;99.90;;;;;;5028255;28;20217;-79
2022/07/13 08:56:47;;;;;;;0.98;0.90;;;12.20;99.90;;;;;;5032643;28;20194;-80
2022/07/13 08:59:19;;;;;;;3.33;2.05;;;12.10;99.90;;;;;;5030774;28;20201;-79
2022/07/13 09:01:50;;;;;;;2.17;1.55;;;12.10;99.90;;;;;;5029345;28;20218;-80
2022/07/13 09:04:22;;;;;;;3.83;2.50;;;12.10;99.90;;;;;;5013710;28;20203;-79
2022/07/13 09:06:52;;;;;;;6.38;3.10;;;12.00;99.90;;;;;;5017730;28;20205;-80
2022/07/13 09:09:33;;;;;;;6.72;3.15;;;12.00;99.90;;;;;;5028995;28;20244;-79
2022/07/13 09:12:19;;;;;;;3.33;2.10;;;12.00;99.90;;;;;;5032108;28;20341;-80
2022/07/13 09:14:56;;;;;;;3.25;2.10;;;12.00;99.90;;;;;;5032347;28;20195;-76
2022/07/13 09:17:40;;;;;;;3.58;2.42;;;12.00;99.90;;;;;;5032622;28;20189;-79
2022/07/13 09:20:22;;;;;;;1.92;1.75;;;12.00;99.90;;;;;;5032489;28;21127;-79
2022/07/13 09:22:54;;;;;;;2.05;1.38;;;11.90;99.90;;;;;;5024588;28;20191;-80
2022/07/13 09:25:32;;;;;;;4.18;2.40;;;12.00;99.90;;;;;;5020817;28;20194;-80
2022/07/13 09:28:08;;;;;;;4.32;2.17;;;12.00;99.90;;;;;;5031974;28;20590;-80
2022/07/13 09:30:43;;;;;;;2.08;1.20;;;12.00;99.90;;;;;;5028582;28;20557;-81
2022/07/13 09:33:14;;;;;;;2.85;1.67;;;12.00;99.90;;;;;;5030225;28;20197;-80
2022/07/13 09:35:49;;;;;;;4.30;1.50;;;12.00;99.90;;;;;;5031780;28;20588;-79
2022/07/13 09:38:37;;;;;;;2.75;1.20;;;12.00;99.90;;;;;;5032749;28;20194;-81
2022/07/13 09:41:23;;;;;;;1.35;1.10;;;12.00;99.90;;;;;;5025713;28;20198;-81
2022/07/13 09:47:01;;;;;;;1.60;1.20;;;12.00;99.90;;;;;;5033222;28;20308;-80
2022/07/13 09:49:39;;;;;;;1.63;1.20;;;12.00;99.90;;;;;;5032767;28;20197;-81
2022/07/13 09:52:10;;;;;;;1.25;1.00;;;12.00;99.90;;;;;;5031880;28;20206;-82
2022/07/13 09:54:42;;;;;;;1.75;1.20;;;11.90;99.90;;;;;;5031399;28;20198;-82
2022/07/13 09:57:16;;;;;;;2.47;1.20;;;11.90;99.90;;;;;;5029325;28;20186;-82
2022/07/13 09:59:49;;;;;;;2.15;1.30;;;11.90;99.90;;;;;;5031700;28;20194;-81
2022/07/13 10:02:22;;;;;;;3.40;1.20;;;11.80;99.90;;;;;;5026660;28;20696;-81
2022/07/13 10:04:59;;;;;;;2.15;1.20;;;11.70;99.90;;;;;;5031804;28;20244;-82
2022/07/13 10:07:33;;;;;;;1.20;1.08;;;11.70;99.90;;;;;;5028488;28;20198;-82
2022/07/13 10:10:06;;;;;;;7.07;1.58;;;11.70;99.90;;;;;;5034663;28;20183;-83
2022/07/13 10:12:38;;;;;;;2.17;1.33;;;11.60;99.90;;;;;;5035711;28;20217;-85
2022/07/13 10:15:09;;;;;;;2.42;1.40;;;11.60;99.90;;;;;;5028894;28;20195;-83
2022/07/13 10:17:42;;;;;;;2.90;1.30;;;11.50;99.90;;;;;;5025729;28;20190;-83
2022/07/13 10:20:16;;;;;;;1.85;1.35;;;11.50;99.90;;;;;;5033473;28;20186;-83
2022/07/13 10:22:48;;;;;;;5.10;1.50;;;11.50;99.90;;;;;;5035493;28;20198;-85
2022/07/13 10:25:20;;;;;;;2.58;1.48;;;11.50;99.90;;;;;;5018802;28;20187;-82
2022/07/13 10:28:06;;;;;;;2.58;1.83;;;11.40;99.90;;;;;;5034397;28;20198;-84
2022/07/13 10:30:36;;;;;;;2.17;1.67;;;11.40;99.90;;;;;;5033177;28;20190;-83
2022/07/13 10:33:24;;;;;;;3.75;1.58;;;11.40;99.90;;;;;;5032999;28;20704;-83
2022/07/13 10:35:57;;;;;;;4.22;1.70;;;11.30;99.90;;;;;;5034831;28;20222;-83
2022/07/13 10:38:29;;;;;;;4.43;1.70;;;11.40;99.90;;;;;;5035557;28;20195;-83
2022/07/13 10:41:23;;;;;;;3.20;1.80;;;11.40;99.90;;;;;;5034154;28;20218;-82
2022/07/13 10:44:05;;;;;;;5.68;1.98;;;11.30;99.90;;;;;;5023312;28;20194;-81
2022/07/13 10:46:51;;;;;;;5.55;2.38;;;11.30;99.90;;;;;;5031934;28;20202;-82
2022/07/13 10:49:44;;;;;;;3.17;2.22;;;11.30;99.90;;;;;;5026774;28;20202;-82
2022/07/13 10:52:51;;;;;;;4.05;2.40;;;11.30;99.90;;;;;;5023404;28;20214;-82
2022/07/13 10:55:35;;;;;;;3.85;2.20;;;11.20;99.90;;;;;;5033280;28;20244;-82
2022/07/13 10:58:37;;;;;;;6.68;2.58;;;11.20;99.90;;;;;;5033574;28;20193;-83
2022/07/13 11:01:48;;;;;;;7.13;2.47;;;11.30;99.90;;;;;;5024204;28;20697;-82
2022/07/13 11:04:20;;;;;;;4.15;2.80;;;11.30;99.90;;;;;;5031986;28;20236;-84
2022/07/13 11:07:11;;;;;;;4.53;2.50;;;11.20;99.90;;;;;;5032907;28;20195;-83
2022/07/13 11:09:42;;;;;;;3.00;2.22;;;11.20;99.90;;;;;;5031351;28;20198;-83
2022/07/13 11:12:24;;;;;;;4.15;2.60;;;11.20;99.90;;;;;;5028240;28;20217;-82
2022/07/13 11:14:55;;;;;;;5.55;2.63;;;11.20;99.90;;;;;;5030515;28;20182;-83
2022/07/13 11:17:27;;;;;;;3.58;2.60;;;11.20;99.90;;;;;;5029471;28;20209;-82
2022/07/13 11:20:03;;;;;;;5.25;3.20;;;11.10;99.90;;;;;;5027090;28;20183;-83
2022/07/13 11:25:36;;;;;;;4.72;3.30;;;11.10;99.90;;;;;;5022539;28;20190;-83
2022/07/13 11:28:23;;;;;;;3.38;2.70;;;11.10;99.90;;;;;;5034533;28;20186;-83
2022/07/13 11:30:57;;;;;;;4.10;2.92;;;11.00;99.90;;;;;;5033977;28;20297;-83
2022/07/13 11:33:28;;;;;;;4.15;2.97;;;11.00;99.90;;;;;;5033995;28;20628;-83
2022/07/13 11:36:00;;;;;;;4.18;3.00;;;11.00;99.90;;;;;;5026466;28;20586;-83
2022/07/13 11:38:38;;;;;;;5.35;3.00;;;10.90;99.90;;;;;;5034292;28;20720;-83
2022/07/13 11:41:21;;;;;;;4.85;3.20;;;10.90;99.90;;;;;;5025849;28;20191;-83
2022/07/13 11:43:52;;;;;;;5.88;2.90;;;10.90;99.90;;;;;;5033883;28;20613;-83
2022/07/13 11:46:27;;;;;;;3.83;2.90;;;10.80;99.90;;;;;;5034339;28;20186;-83
2022/07/13 11:49:05;;;;;;;4.28;2.78;;;10.90;99.90;;;;;;5032224;28;20193;-83
2022/07/13 11:51:36;;;;;;;4.15;3.15;;;10.80;99.90;;;;;;5027229;28;20668;-83
2022/07/13 11:54:16;;;;;;;4.03;2.80;;;10.80;99.90;;;;;;5033804;28;20190;-83
2022/07/13 11:56:50;;;;;;;4.82;2.90;;;10.80;99.90;;;;;;5032885;28;20612;-83
2022/07/13 11:59:38;;;;;;;3.15;2.50;;;10.80;99.90;;;;;;5033303;28;20197;-83
2022/07/13 12:02:09;;;;;;;3.35;2.28;;;10.80;99.90;;;;;;5027165;28;20218;-84
2022/07/13 12:04:42;;;;;;;3.40;2.72;;;10.80;99.90;;;;;;5023899;28;20190;-84
2022/07/13 12:07:15;;;;;;;3.55;2.70;;;10.80;99.90;;;;;;5031356;28;20194;-83
2022/07/13 12:09:54;;;;;;;4.75;2.33;;;10.80;99.90;;;;;;5033379;28;20194;-83
2022/07/13 12:12:27;;;;;;;3.88;2.58;;;10.80;99.90;;;;;;5033551;28;20213;-82
2022/07/13 12:14:59;;;;;;;7.45;2.90;;;10.70;99.90;;;;;;5033619;28;20191;-82
2022/07/13 12:17:31;;;;;;;3.55;2.80;;;10.70;99.90;;;;;;5033855;28;20292;-81
2022/07/13 12:20:14;;;;;;;4.07;2.60;;;10.70;99.90;;;;;;5033019;28;20191;-83
2022/07/13 12:22:52;;;;;;;3.83;2.78;;;10.70;99.90;;;;;;5032187;28;20221;-84
2022/07/13 12:25:31;;;;;;;3.70;2.70;;;10.70;99.90;;;;;;5033536;28;20688;-85
2022/07/13 12:28:03;;;;;;;4.63;2.78;;;10.60;99.90;;;;;;5032575;28;20218;-83
2022/07/13 12:30:37;;;;;;;4.47;2.90;;;10.70;99.90;;;;;;5031525;28;20191;-84
2022/07/13 12:33:09;;;;;;;4.88;3.10;;;10.60;99.90;;;;;;5026598;28;20210;-83
2022/07/13 12:35:43;;;;;;;5.10;3.10;;;10.60;99.90;;;;;;5029958;28;20242;-84
2022/07/13 12:38:15;;;;;;;3.95;2.72;;;10.60;99.90;;;;;;5030253;28;20649;-83
2022/07/13 12:40:49;;;;;;;7.38;2.85;;;10.60;99.90;;;;;;5032995;28;20642;-84
2022/07/13 12:43:21;;;;;;;4.65;2.60;;;10.60;99.90;;;;;;5032969;28;20222;-84
2022/07/13 12:45:53;;;;;;;4.10;2.53;;;10.60;99.90;;;;;;5031485;28;20202;-84
2022/07/13 12:48:25;;;;;;;2.95;2.40;;;10.60;99.90;;;;;;5033374;28;20597;-86
2022/07/13 12:51:05;;;;;;;4.43;2.70;;;10.60;99.90;;;;;;5033191;28;20630;-84
2022/07/13 12:53:51;;;;;;;3.97;2.72;;;10.60;99.90;;;;;;5028758;28;20688;-81
2022/07/13 12:56:26;;;;;;;3.35;2.22;;;10.60;99.90;;;;;;5032930;28;20198;-83
2022/07/13 12:58:58;;;;;;;3.47;2.33;;;10.60;99.90;;;;;;5032394;28;20218;-83
2022/07/13 13:01:32;;;;;;;4.95;2.20;;;10.60;99.90;;;;;;5029053;28;20210;-78
2022/07/13 13:04:04;;;;;;;4.32;2.50;;;10.60;99.90;;;;;;5030468;28;20645;-80
2022/07/13 13:06:35;;;;;;;3.67;2.38;;;10.60;99.90;;;;;;5031179;28;20190;-83
2022/07/13 13:09:09;;;;;;;4.53;2.83;;;10.70;99.90;;;;;;5032439;28;20186;-85
2022/07/13 13:11:42;;;;;;;3.60;2.40;;;10.70;99.90;;;;;;5033634;28;20705;-82
2022/07/13 13:14:13;;;;;;;3.55;2.38;;;10.70;99.90;;;;;;5031654;28;20183;-82
2022/07/13 13:16:45;;;;;;;3.67;1.98;;;10.60;99.90;;;;;;5024165;28;20609;-83
2022/07/13 13:19:15;;;;;;;2.90;2.03;;;10.70;99.90;;;;;;5029678;28;20574;-81
2022/07/13 13:21:49;;;;;;;3.42;2.10;;;10.70;99.90;;;;;;5030436;28;20198;-81
2022/07/13 13:24:19;;;;;;;3.88;2.10;;;10.70;99.90;;;;;;5026738;28;20219;-82
2022/07/13 13:26:52;;;;;;;2.90;1.85;;;10.70;99.90;;;;;;5027249;28;20190;-82